sensor_id;sensor_type;location;lat;lon;timestamp;pressure;altitude;pressure_sealevel;temperature;humidity
69318;BME280;56457;52.190;4.440;2023-03-19T00:00:26;101189.13;;;11.10;100.00
69318;BME280;56457;52.190;4.440;2023-03-19T00:01:27;101181.25;;;11.10;100.00
69318;BME280;56457;52.190;4.440;2023-03-19T00:02:27;101196.13;;;11.13;100.00
69318;BME280;56457;52.190;4.440;2023-03-19T00:03:27;101183.00;;;11.08;100.00
69318;BME280;56457;52.190;4.440;2023-03-19T00:04:28;101185.66;;;11.02;100.00
69318;BME280;56457;52.190;4.440;2023-03-19T00:05:28;101181.28;;;11.05;100.00
69318;BME280;56457;52.190;4.440;2023-03-19T00:06:28;101184.75;;;11.04;100.00
69318;BME280;56457;52.190;4.440;2023-03-19T00:07:29;101190.91;;;11.02;100.00
69318;BME280;56457;52.190;4.440;2023-03-19T00:08:29;101186.53;;;11.01;100.00
69318;BME280;56457;52.190;4.440;2023-03-19T00:09:30;101181.28;;;10.98;100.00
69318;BME280;56457;52.190;4.440;2023-03-19T00:10:30;101179.56;;;10.95;100.00
69318;BME280;56457;52.190;4.440;2023-03-19T00:11:31;101194.47;;;10.93;100.00
69318;BME280;56457;52.190;4.440;2023-03-19T00:12:32;101189.16;;;10.98;100.00
69318;BME280;56457;52.190;4.440;2023-03-19T00:13:32;101196.16;;;10.99;100.00
69318;BME280;56457;52.190;4.440;2023-03-19T00:14:33;101195.31;;;10.97;100.00
69318;BME280;56457;52.190;4.440;2023-03-19T00:15:33;101199.69;;;10.96;100.00
69318;BME280;56457;52.190;4.440;2023-03-19T00:16:33;101197.91;;;10.98;100.00
69318;BME280;56457;52.190;4.440;2023-03-19T00:17:34;101194.44;;;10.99;100.00
69318;BME280;56457;52.190;4.440;2023-03-19T00:18:34;101193.53;;;10.99;100.00
69318;BME280;56457;52.190;4.440;2023-03-19T00:19:35;101190.06;;;11.00;100.00
69318;BME280;56457;52.190;4.440;2023-03-19T00:20:35;101199.66;;;11.07;100.00
69318;BME280;56457;52.190;4.440;2023-03-19T00:21:36;101199.63;;;11.10;100.00
69318;BME280;56457;52.190;4.440;2023-03-19T00:22:36;101198.75;;;11.05;100.00
69318;BME280;56457;52.190;4.440;2023-03-19T00:23:36;101194.41;;;11.05;100.00
69318;BME280;56457;52.190;4.440;2023-03-19T00:24:37;101201.38;;;11.10;100.00
69318;BME280;56457;52.190;4.440;2023-03-19T00:25:37;101201.34;;;11.11;100.00
69318;BME280;56457;52.190;4.440;2023-03-19T00:26:37;101198.75;;;11.08;100.00
69318;BME280;56457;52.190;4.440;2023-03-19T00:27:38;101194.41;;;11.01;100.00
69318;BME280;56457;52.190;4.440;2023-03-19T00:28:38;101193.53;;;11.02;100.00
69318;BME280;56457;52.190;4.440;2023-03-19T00:29:38;101201.41;;;11.07;100.00
69318;BME280;56457;52.190;4.440;2023-03-19T00:30:39;101198.78;;;10.99;100.00
69318;BME280;56457;52.190;4.440;2023-03-19T00:31:40;101204.03;;;11.02;100.00
69318;BME280;56457;52.190;4.440;2023-03-19T00:32:40;101201.41;;;11.03;100.00
69318;BME280;56457;52.190;4.440;2023-03-19T00:33:41;101202.28;;;11.04;100.00
69318;BME280;56457;52.190;4.440;2023-03-19T00:34:41;101207.50;;;11.09;100.00
69318;BME280;56457;52.190;4.440;2023-03-19T00:35:42;101196.13;;;11.05;100.00
69318;BME280;56457;52.190;4.440;2023-03-19T00:36:42;101205.78;;;11.03;100.00
69318;BME280;56457;52.190;4.440;2023-03-19T00:37:42;101197.03;;;11.04;100.00
69318;BME280;56457;52.190;4.440;2023-03-19T00:38:43;101204.03;;;11.07;100.00
69318;BME280;56457;52.190;4.440;2023-03-19T00:39:44;101201.38;;;11.05;100.00
69318;BME280;56457;52.190;4.440;2023-03-19T00:40:44;101206.66;;;11.02;100.00
69318;BME280;56457;52.190;4.440;2023-03-19T00:41:44;101210.16;;;11.05;100.00
69318;BME280;56457;52.190;4.440;2023-03-19T00:42:49;101203.16;;;10.98;100.00
69318;BME280;56457;52.190;4.440;2023-03-19T00:43:53;101209.28;;;11.02;100.00
69318;BME280;56457;52.190;4.440;2023-03-19T00:44:54;101202.34;;;10.93;100.00
69318;BME280;56457;52.190;4.440;2023-03-19T00:45:54;101203.19;;;10.97;100.00
69318;BME280;56457;52.190;4.440;2023-03-19T00:46:55;101206.69;;;10.94;100.00
69318;BME280;56457;52.190;4.440;2023-03-19T00:47:56;101211.94;;;10.87;100.00
69318;BME280;56457;52.190;4.440;2023-03-19T00:48:56;101201.47;;;10.88;100.00
69318;BME280;56457;52.190;4.440;2023-03-19T00:49:57;101200.56;;;10.95;100.00
69318;BME280;56457;52.190;4.440;2023-03-19T00:51:04;101205.84;;;10.88;100.00
69318;BME280;56457;52.190;4.440;2023-03-19T00:52:05;101209.28;;;10.99;100.00
69318;BME280;56457;52.190;4.440;2023-03-19T00:53:05;101208.44;;;10.91;100.00
69318;BME280;56457;52.190;4.440;2023-03-19T00:54:05;101208.44;;;10.92;100.00
69318;BME280;56457;52.190;4.440;2023-03-19T00:55:06;101212.81;;;10.95;100.00
69318;BME280;56457;52.190;4.440;2023-03-19T00:56:07;101208.47;;;10.83;100.00
69318;BME280;56457;52.190;4.440;2023-03-19T00:57:07;101209.34;;;10.81;100.00
69318;BME280;56457;52.190;4.440;2023-03-19T00:58:08;101212.88;;;10.76;100.00
69318;BME280;56457;52.190;4.440;2023-03-19T00:59:09;101203.25;;;10.74;100.00
69318;BME280;56457;52.190;4.440;2023-03-19T01:00:10;101208.47;;;10.78;100.00
69318;BME280;56457;52.190;4.440;2023-03-19T01:01:11;101202.41;;;10.70;100.00
69318;BME280;56457;52.190;4.440;2023-03-19T01:02:13;101201.50;;;10.73;100.00
69318;BME280;56457;52.190;4.440;2023-03-19T01:03:13;101206.75;;;10.71;100.00
69318;BME280;56457;52.190;4.440;2023-03-19T01:04:14;101202.38;;;10.72;100.00
69318;BME280;56457;52.190;4.440;2023-03-19T01:05:15;101204.13;;;10.67;100.00
69318;BME280;56457;52.190;4.440;2023-03-19T01:06:16;101196.25;;;10.67;100.00
69318;BME280;56457;52.190;4.440;2023-03-19T01:07:16;101195.41;;;10.63;100.00
69318;BME280;56457;52.190;4.440;2023-03-19T01:08:16;101198.91;;;10.68;100.00
69318;BME280;56457;52.190;4.440;2023-03-19T01:09:17;101197.16;;;10.70;100.00
69318;BME280;56457;52.190;4.440;2023-03-19T01:10:18;101197.13;;;10.67;100.00
69318;BME280;56457;52.190;4.440;2023-03-19T01:11:19;101197.16;;;10.64;100.00
69318;BME280;56457;52.190;4.440;2023-03-19T01:12:19;101199.78;;;10.66;100.00
69318;BME280;56457;52.190;4.440;2023-03-19T01:13:19;101194.53;;;10.70;100.00
69318;BME280;56457;52.190;4.440;2023-03-19T01:14:20;101192.78;;;10.66;100.00
69318;BME280;56457;52.190;4.440;2023-03-19T01:15:21;101193.69;;;10.62;100.00
69318;BME280;56457;52.190;4.440;2023-03-19T01:16:21;101198.03;;;10.60;100.00
69318;BME280;56457;52.190;4.440;2023-03-19T01:17:21;101198.91;;;10.68;100.00
69318;BME280;56457;52.190;4.440;2023-03-19T01:18:22;101198.88;;;10.67;100.00
69318;BME280;56457;52.190;4.440;2023-03-19T01:19:22;101199.78;;;10.61;100.00
69318;BME280;56457;52.190;4.440;2023-03-19T01:20:23;101197.19;;;10.58;100.00
69318;BME280;56457;52.190;4.440;2023-03-19T01:21:23;101198.03;;;10.60;100.00
69318;BME280;56457;52.190;4.440;2023-03-19T01:22:24;101204.19;;;10.51;100.00
69318;BME280;56457;52.190;4.440;2023-03-19T01:23:25;101195.44;;;10.48;100.00
69318;BME280;56457;52.190;4.440;2023-03-19T01:24:28;101209.44;;;10.44;100.00
69318;BME280;56457;52.190;4.440;2023-03-19T01:25:28;101203.34;;;10.39;100.00
69318;BME280;56457;52.190;4.440;2023-03-19T01:26:29;101198.06;;;10.40;100.00
69318;BME280;56457;52.190;4.440;2023-03-19T01:27:30;101197.22;;;10.34;100.00
69318;BME280;56457;52.190;4.440;2023-03-19T01:28:30;101201.56;;;10.35;100.00
69318;BME280;56457;52.190;4.440;2023-03-19T01:29:30;101197.22;;;10.34;100.00
69318;BME280;56457;52.190;4.440;2023-03-19T01:30:31;101200.72;;;10.25;100.00
69318;BME280;56457;52.190;4.440;2023-03-19T01:31:31;101194.56;;;10.18;100.00
69318;BME280;56457;52.190;4.440;2023-03-19T01:32:32;101203.31;;;10.13;100.00
69318;BME280;56457;52.190;4.440;2023-03-19T01:33:32;101197.22;;;10.06;100.00
69318;BME280;56457;52.190;4.440;2023-03-19T01:34:33;101201.56;;;10.04;100.00
69318;BME280;56457;52.190;4.440;2023-03-19T01:35:33;101202.44;;;10.02;100.00
69318;BME280;56457;52.190;4.440;2023-03-19T01:36:33;101198.06;;;10.01;100.00
69318;BME280;56457;52.190;4.440;2023-03-19T01:37:34;101195.44;;;9.93;100.00
69318;BME280;56457;52.190;4.440;2023-03-19T01:38:34;101192.81;;;9.96;100.00
69318;BME280;56457;52.190;4.440;2023-03-19T01:39:35;101202.44;;;9.98;100.00
69318;BME280;56457;52.190;4.440;2023-03-19T01:40:35;101202.44;;;9.95;100.00
69318;BME280;56457;52.190;4.440;2023-03-19T01:41:36;101203.31;;;9.94;100.00
69318;BME280;56457;52.190;4.440;2023-03-19T01:44:26;101201.53;;;9.86;100.00
69318;BME280;56457;52.190;4.440;2023-03-19T01:45:36;101200.69;;;9.88;100.00
69318;BME280;56457;52.190;4.440;2023-03-19T01:46:37;101205.06;;;9.83;100.00
69318;BME280;56457;52.190;4.440;2023-03-19T01:47:39;101204.16;;;9.86;100.00
69318;BME280;56457;52.190;4.440;2023-03-19T01:48:43;101210.28;;;9.77;100.00
69318;BME280;56457;52.190;4.440;2023-03-19T01:49:46;101208.53;;;9.76;100.00
69318;BME280;56457;52.190;4.440;2023-03-19T01:50:49;101208.53;;;9.70;100.00
69318;BME280;56457;52.190;4.440;2023-03-19T01:51:53;101210.25;;;9.60;100.00
69318;BME280;56457;52.190;4.440;2023-03-19T01:52:54;101208.50;;;9.62;100.00
69318;BME280;56457;52.190;4.440;2023-03-19T01:53:56;101205.03;;;9.63;100.00
69318;BME280;56457;52.190;4.440;2023-03-19T01:54:58;101203.25;;;9.55;100.00
69318;BME280;56457;52.190;4.440;2023-03-19T01:56:11;101201.50;;;9.52;100.00
69318;BME280;56457;52.190;4.440;2023-03-19T01:57:13;101200.63;;;9.46;100.00
69318;BME280;56457;52.190;4.440;2023-03-19T01:58:15;101209.31;;;9.43;100.00
69318;BME280;56457;52.190;4.440;2023-03-19T01:59:26;101208.47;;;9.44;100.00
69318;BME280;56457;52.190;4.440;2023-03-19T02:00:28;101202.34;;;9.42;100.00
69318;BME280;56457;52.190;4.440;2023-03-19T02:01:29;101206.72;;;9.44;100.00
69318;BME280;56457;52.190;4.440;2023-03-19T02:02:32;101207.56;;;9.36;100.00
69318;BME280;56457;52.190;4.440;2023-03-19T02:03:33;101202.31;;;9.34;100.00
69318;BME280;56457;52.190;4.440;2023-03-19T02:04:34;101210.19;;;9.34;100.00
69318;BME280;56457;52.190;4.440;2023-03-19T02:05:35;101206.69;;;9.37;100.00
69318;BME280;56457;52.190;4.440;2023-03-19T02:06:37;101208.47;;;9.38;100.00
69318;BME280;56457;52.190;4.440;2023-03-19T02:07:38;101212.81;;;9.43;100.00
69318;BME280;56457;52.190;4.440;2023-03-19T02:08:40;101214.53;;;9.34;100.00
69318;BME280;56457;52.190;4.440;2023-03-19T02:09:41;101211.09;;;9.38;100.00
69318;BME280;56457;52.190;4.440;2023-03-19T02:10:42;101205.81;;;9.35;100.00
69318;BME280;56457;52.190;4.440;2023-03-19T02:11:43;101214.56;;;9.38;100.00
69318;BME280;56457;52.190;4.440;2023-03-19T02:12:44;101207.56;;;9.33;100.00
69318;BME280;56457;52.190;4.440;2023-03-19T02:13:45;101199.72;;;9.34;100.00
69318;BME280;56457;52.190;4.440;2023-03-19T02:14:46;101205.78;;;9.30;100.00
69318;BME280;56457;52.190;4.440;2023-03-19T02:15:47;101200.59;;;9.32;100.00
69318;BME280;56457;52.190;4.440;2023-03-19T02:16:48;101202.31;;;9.27;100.00
69318;BME280;56457;52.190;4.440;2023-03-19T02:17:48;101211.88;;;9.23;100.00
69318;BME280;56457;52.190;4.440;2023-03-19T02:18:49;101204.03;;;9.23;100.00
69318;BME280;56457;52.190;4.440;2023-03-19T02:21:04;101212.72;;;9.17;100.00
69318;BME280;56457;52.190;4.440;2023-03-19T02:22:06;101206.63;;;9.14;100.00
69318;BME280;56457;52.190;4.440;2023-03-19T02:24:13;101208.41;;;9.20;100.00
69318;BME280;56457;52.190;4.440;2023-03-19T02:25:33;101213.59;;;9.16;100.00
69318;BME280;56457;52.190;4.440;2023-03-19T02:26:36;101216.22;;;9.18;100.00
69318;BME280;56457;52.190;4.440;2023-03-19T02:27:37;101213.56;;;9.12;100.00
69318;BME280;56457;52.190;4.440;2023-03-19T02:28:38;101217.94;;;9.10;100.00
69318;BME280;56457;52.190;4.440;2023-03-19T02:29:40;101217.94;;;9.07;100.00
69318;BME280;56457;52.190;4.440;2023-03-19T02:30:41;101217.03;;;9.06;100.00
69318;BME280;56457;52.190;4.440;2023-03-19T02:31:41;101218.81;;;9.12;100.00
69318;BME280;56457;52.190;4.440;2023-03-19T02:32:42;101216.19;;;9.07;100.00
69318;BME280;56457;52.190;4.440;2023-03-19T02:33:44;101216.16;;;9.06;100.00
69318;BME280;56457;52.190;4.440;2023-03-19T02:34:44;101211.84;;;9.12;100.00
69318;BME280;56457;52.190;4.440;2023-03-19T02:35:46;101217.97;;;9.13;100.00
69318;BME280;56457;52.190;4.440;2023-03-19T02:36:50;101220.56;;;9.10;100.00
69318;BME280;56457;52.190;4.440;2023-03-19T02:37:51;101215.31;;;9.10;100.00
69318;BME280;56457;52.190;4.440;2023-03-19T02:38:51;101218.81;;;9.10;100.00
69318;BME280;56457;52.190;4.440;2023-03-19T02:39:56;101213.59;;;9.16;100.00
69318;BME280;56457;52.190;4.440;2023-03-19T02:41:00;101219.66;;;9.06;100.00
69318;BME280;56457;52.190;4.440;2023-03-19T02:42:01;101227.50;;;9.06;100.00
69318;BME280;56457;52.190;4.440;2023-03-19T02:43:02;101220.56;;;9.08;100.00
69318;BME280;56457;52.190;4.440;2023-03-19T02:44:03;101224.06;;;9.12;100.00
69318;BME280;56457;52.190;4.440;2023-03-19T02:45:04;101234.56;;;9.24;100.00
69318;BME280;56457;52.190;4.440;2023-03-19T02:46:06;101232.84;;;9.20;100.00
69318;BME280;56457;52.190;4.440;2023-03-19T02:47:07;101230.22;;;9.25;100.00
69318;BME280;56457;52.190;4.440;2023-03-19T02:48:08;101229.34;;;9.29;100.00
69318;BME280;56457;52.190;4.440;2023-03-19T02:49:08;101232.84;;;9.28;100.00
69318;BME280;56457;52.190;4.440;2023-03-19T02:50:09;101233.75;;;9.33;100.00
69318;BME280;56457;52.190;4.440;2023-03-19T02:51:09;101225.84;;;9.25;100.00
69318;BME280;56457;52.190;4.440;2023-03-19T02:52:09;101232.81;;;9.25;100.00
69318;BME280;56457;52.190;4.440;2023-03-19T02:53:10;101219.72;;;9.25;100.00
69318;BME280;56457;52.190;4.440;2023-03-19T02:54:10;101230.22;;;9.31;100.00
69318;BME280;56457;52.190;4.440;2023-03-19T02:55:11;101229.34;;;9.21;100.00
69318;BME280;56457;52.190;4.440;2023-03-19T02:56:11;101226.75;;;9.29;100.00
69318;BME280;56457;52.190;4.440;2023-03-19T02:57:12;101228.50;;;9.28;100.00
69318;BME280;56457;52.190;4.440;2023-03-19T02:58:12;101226.75;;;9.30;100.00
69318;BME280;56457;52.190;4.440;2023-03-19T02:59:13;101219.72;;;9.23;100.00
69318;BME280;56457;52.190;4.440;2023-03-19T03:00:13;101223.22;;;9.24;100.00
69318;BME280;56457;52.190;4.440;2023-03-19T03:01:16;101219.75;;;9.26;100.00
69318;BME280;56457;52.190;4.440;2023-03-19T03:02:16;101209.28;;;9.29;100.00
69318;BME280;56457;52.190;4.440;2023-03-19T03:03:17;101219.75;;;9.28;100.00
69318;BME280;56457;52.190;4.440;2023-03-19T03:04:17;101220.63;;;9.27;100.00
69318;BME280;56457;52.190;4.440;2023-03-19T03:05:17;101214.53;;;9.31;100.00
69318;BME280;56457;52.190;4.440;2023-03-19T03:06:18;101212.78;;;9.30;100.00
69318;BME280;56457;52.190;4.440;2023-03-19T03:07:18;101214.53;;;9.31;100.00
69318;BME280;56457;52.190;4.440;2023-03-19T03:08:19;101210.13;;;9.25;100.00
69318;BME280;56457;52.190;4.440;2023-03-19T03:09:19;101215.34;;;9.16;100.00
69318;BME280;56457;52.190;4.440;2023-03-19T03:10:20;101211.88;;;9.15;100.00
69318;BME280;56457;52.190;4.440;2023-03-19T03:11:20;101212.69;;;9.11;100.00
69318;BME280;56457;52.190;4.440;2023-03-19T03:12:21;101211.00;;;9.13;100.00
69318;BME280;56457;52.190;4.440;2023-03-19T03:13:22;101216.22;;;9.16;100.00
69318;BME280;56457;52.190;4.440;2023-03-19T03:14:22;101209.25;;;9.22;100.00
69318;BME280;56457;52.190;4.440;2023-03-19T03:15:23;101208.41;;;9.27;100.00
69318;BME280;56457;52.190;4.440;2023-03-19T03:16:24;101211.03;;;9.26;100.00
69318;BME280;56457;52.190;4.440;2023-03-19T03:17:24;101212.75;;;9.21;100.00
69318;BME280;56457;52.190;4.440;2023-03-19T03:18:25;101211.88;;;9.23;100.00
69318;BME280;56457;52.190;4.440;2023-03-19T03:19:26;101216.25;;;9.20;100.00
69318;BME280;56457;52.190;4.440;2023-03-19T03:20:26;101217.97;;;9.19;100.00
69318;BME280;56457;52.190;4.440;2023-03-19T03:21:27;101214.47;;;9.17;100.00
69318;BME280;56457;52.190;4.440;2023-03-19T03:22:27;101222.34;;;9.23;100.00
69318;BME280;56457;52.190;4.440;2023-03-19T03:23:27;101218.88;;;9.20;100.00
69318;BME280;56457;52.190;4.440;2023-03-19T03:24:28;101212.78;;;9.27;100.00
69318;BME280;56457;52.190;4.440;2023-03-19T03:25:28;101214.53;;;9.37;100.00
69318;BME280;56457;52.190;4.440;2023-03-19T03:26:29;101216.28;;;9.35;100.00
69318;BME280;56457;52.190;4.440;2023-03-19T03:27:30;101218.88;;;9.30;100.00
69318;BME280;56457;52.190;4.440;2023-03-19T03:28:30;101224.97;;;9.23;100.00
69318;BME280;56457;52.190;4.440;2023-03-19T03:29:31;101221.50;;;9.20;100.00
69318;BME280;56457;52.190;4.440;2023-03-19T03:30:31;101216.25;;;9.20;100.00
69318;BME280;56457;52.190;4.440;2023-03-19T03:31:32;101219.69;;;9.12;100.00
69318;BME280;56457;52.190;4.440;2023-03-19T03:32:34;101217.06;;;9.12;100.00
69318;BME280;56457;52.190;4.440;2023-03-19T03:33:34;101213.59;;;9.13;100.00
69318;BME280;56457;52.190;4.440;2023-03-19T03:34:35;101215.31;;;9.07;100.00
69318;BME280;56457;52.190;4.440;2023-03-19T03:35:35;101216.19;;;9.10;100.00
69318;BME280;56457;52.190;4.440;2023-03-19T03:36:36;101217.06;;;9.11;100.00
69318;BME280;56457;52.190;4.440;2023-03-19T03:37:36;101217.06;;;9.08;100.00
69318;BME280;56457;52.190;4.440;2023-03-19T03:38:37;101214.41;;;9.06;100.00
69318;BME280;56457;52.190;4.440;2023-03-19T03:39:37;101209.19;;;9.03;100.00
69318;BME280;56457;52.190;4.440;2023-03-19T03:40:38;101212.75;;;9.21;100.00
69318;BME280;56457;52.190;4.440;2023-03-19T03:41:38;101217.09;;;9.17;100.00
69318;BME280;56457;52.190;4.440;2023-03-19T03:42:39;101211.88;;;9.15;100.00
69318;BME280;56457;52.190;4.440;2023-03-19T03:43:39;101217.13;;;9.20;100.00
69318;BME280;56457;52.190;4.440;2023-03-19T03:44:40;101211.03;;;9.26;100.00
69318;BME280;56457;52.190;4.440;2023-03-19T03:45:40;101219.78;;;9.35;100.00
69318;BME280;56457;52.190;4.440;2023-03-19T03:46:42;101220.63;;;9.31;100.00
69318;BME280;56457;52.190;4.440;2023-03-19T03:47:43;101223.25;;;9.31;100.00
69318;BME280;56457;52.190;4.440;2023-03-19T03:48:43;101214.53;;;9.31;100.00
69318;BME280;56457;52.190;4.440;2023-03-19T03:49:44;101225.00;;;9.29;100.00
69318;BME280;56457;52.190;4.440;2023-03-19T03:50:44;101215.44;;;9.42;100.00
69318;BME280;56457;52.190;4.440;2023-03-19T03:51:45;101223.31;;;9.48;100.00
69318;BME280;56457;52.190;4.440;2023-03-19T03:52:45;101222.44;;;9.38;100.00
69318;BME280;56457;52.190;4.440;2023-03-19T03:53:47;101224.16;;;9.39;100.00
69318;BME280;56457;52.190;4.440;2023-03-19T03:54:47;101219.78;;;9.37;100.00
69318;BME280;56457;52.190;4.440;2023-03-19T03:55:47;101225.88;;;9.37;100.00
69318;BME280;56457;52.190;4.440;2023-03-19T03:56:48;101227.63;;;9.35;100.00
69318;BME280;56457;52.190;4.440;2023-03-19T03:57:49;101218.88;;;9.29;100.00
69318;BME280;56457;52.190;4.440;2023-03-19T03:58:50;101231.13;;;9.33;100.00
69318;BME280;56457;52.190;4.440;2023-03-19T03:59:50;101231.97;;;9.20;100.00
69318;BME280;56457;52.190;4.440;2023-03-19T04:00:51;101237.22;;;9.26;100.00
69318;BME280;56457;52.190;4.440;2023-03-19T04:01:51;101230.25;;;9.26;100.00
69318;BME280;56457;52.190;4.440;2023-03-19T04:02:52;101238.97;;;9.27;100.00
69318;BME280;56457;52.190;4.440;2023-03-19T04:03:52;101231.09;;;9.27;100.00
69318;BME280;56457;52.190;4.440;2023-03-19T04:04:53;101239.84;;;9.32;100.00
69318;BME280;56457;52.190;4.440;2023-03-19T04:05:54;101238.13;;;9.35;100.00
69318;BME280;56457;52.190;4.440;2023-03-19T04:06:54;101246.00;;;9.41;100.00
69318;BME280;56457;52.190;4.440;2023-03-19T04:07:55;101246.84;;;9.34;100.00
69318;BME280;56457;52.190;4.440;2023-03-19T04:08:56;101245.94;;;9.28;100.00
69318;BME280;56457;52.190;4.440;2023-03-19T04:09:56;101239.00;;;9.33;100.00
69318;BME280;56457;52.190;4.440;2023-03-19T04:10:57;101245.97;;;9.37;100.00
69318;BME280;56457;52.190;4.440;2023-03-19T04:11:58;101240.72;;;9.35;100.00
69318;BME280;56457;52.190;4.440;2023-03-19T04:12:59;101245.97;;;9.37;100.00
69318;BME280;56457;52.190;4.440;2023-03-19T04:14:00;101244.25;;;9.39;100.00
69318;BME280;56457;52.190;4.440;2023-03-19T04:15:03;101244.22;;;9.36;100.00
69318;BME280;56457;52.190;4.440;2023-03-19T04:16:03;101245.94;;;9.28;100.00
69318;BME280;56457;52.190;4.440;2023-03-19T04:17:04;101245.06;;;9.27;100.00
69318;BME280;56457;52.190;4.440;2023-03-19T04:18:05;101244.19;;;9.31;100.00
69318;BME280;56457;52.190;4.440;2023-03-19T04:19:05;101245.97;;;9.35;100.00
69318;BME280;56457;52.190;4.440;2023-03-19T04:20:07;101239.81;;;9.24;100.00
69318;BME280;56457;52.190;4.440;2023-03-19T04:21:07;101237.16;;;9.16;100.00
69318;BME280;56457;52.190;4.440;2023-03-19T04:22:08;101243.28;;;9.15;100.00
69318;BME280;56457;52.190;4.440;2023-03-19T04:23:08;101239.78;;;9.15;100.00
69318;BME280;56457;52.190;4.440;2023-03-19T04:24:08;101244.13;;;9.08;100.00
69318;BME280;56457;52.190;4.440;2023-03-19T04:25:11;101239.75;;;9.07;100.00
69318;BME280;56457;52.190;4.440;2023-03-19T04:26:12;101240.59;;;9.06;100.00
69318;BME280;56457;52.190;4.440;2023-03-19T04:27:12;101237.13;;;9.07;100.00
69318;BME280;56457;52.190;4.440;2023-03-19T04:28:13;101244.09;;;9.02;100.00
69318;BME280;56457;52.190;4.440;2023-03-19T04:29:13;101239.75;;;9.10;100.00
69318;BME280;56457;52.190;4.440;2023-03-19T04:30:14;101244.97;;;9.04;100.00
69318;BME280;56457;52.190;4.440;2023-03-19T04:31:14;101236.22;;;8.96;100.00
69318;BME280;56457;52.190;4.440;2023-03-19T04:32:17;101244.91;;;8.92;100.00
69318;BME280;56457;52.190;4.440;2023-03-19T04:33:17;101250.97;;;8.85;100.00
69318;BME280;56457;52.190;4.440;2023-03-19T04:34:18;101242.28;;;8.94;100.00
69318;BME280;56457;52.190;4.440;2023-03-19T04:35:18;101254.53;;;8.95;100.00
69318;BME280;56457;52.190;4.440;2023-03-19T04:36:19;101252.81;;;9.04;100.00
69318;BME280;56457;52.190;4.440;2023-03-19T04:37:20;101254.56;;;9.01;100.00
69318;BME280;56457;52.190;4.440;2023-03-19T04:38:21;101254.53;;;8.96;100.00
69318;BME280;56457;52.190;4.440;2023-03-19T04:39:21;101258.88;;;8.99;100.00
69318;BME280;56457;52.190;4.440;2023-03-19T04:40:21;101258.00;;;8.95;100.00
69318;BME280;56457;52.190;4.440;2023-03-19T04:41:22;101263.28;;;9.01;100.00
69318;BME280;56457;52.190;4.440;2023-03-19T04:42:22;101258.03;;;9.03;100.00
69318;BME280;56457;52.190;4.440;2023-03-19T04:43:24;101260.69;;;9.09;100.00
69318;BME280;56457;52.190;4.440;2023-03-19T04:44:24;101266.81;;;9.09;100.00
69318;BME280;56457;52.190;4.440;2023-03-19T04:45:24;101267.72;;;9.16;100.00
69318;BME280;56457;52.190;4.440;2023-03-19T04:46:25;101267.72;;;9.14;100.00
69318;BME280;56457;52.190;4.440;2023-03-19T04:47:25;101261.59;;;9.18;100.00
69318;BME280;56457;52.190;4.440;2023-03-19T04:48:26;101268.59;;;9.20;100.00
69318;BME280;56457;52.190;4.440;2023-03-19T04:49:26;101259.00;;;9.20;100.00
69318;BME280;56457;52.190;4.440;2023-03-19T04:50:26;101269.47;;;9.25;100.00
69318;BME280;56457;52.190;4.440;2023-03-19T04:51:28;101271.22;;;9.23;100.00
69318;BME280;56457;52.190;4.440;2023-03-19T04:52:28;101266.00;;;9.21;100.00
69318;BME280;56457;52.190;4.440;2023-03-19T04:53:29;101265.09;;;9.14;100.00
69318;BME280;56457;52.190;4.440;2023-03-19T04:54:29;101271.19;;;9.13;100.00
69318;BME280;56457;52.190;4.440;2023-03-19T04:55:29;101271.19;;;9.18;100.00
69318;BME280;56457;52.190;4.440;2023-03-19T04:56:30;101265.97;;;9.13;100.00
69318;BME280;56457;52.190;4.440;2023-03-19T04:57:31;101266.81;;;9.09;100.00
69318;BME280;56457;52.190;4.440;2023-03-19T04:58:31;101275.50;;;9.05;100.00
69318;BME280;56457;52.190;4.440;2023-03-19T04:59:31;101271.16;;;9.10;100.00
69318;BME280;56457;52.190;4.440;2023-03-19T05:00:32;101270.28;;;9.07;100.00
69318;BME280;56457;52.190;4.440;2023-03-19T05:01:32;101265.88;;;8.98;100.00
69318;BME280;56457;52.190;4.440;2023-03-19T05:02:32;101277.22;;;8.96;100.00
69318;BME280;56457;52.190;4.440;2023-03-19T05:03:33;101276.38;;;9.03;100.00
69318;BME280;56457;52.190;4.440;2023-03-19T05:04:33;101271.16;;;9.07;100.00
69318;BME280;56457;52.190;4.440;2023-03-19T05:05:33;101280.75;;;9.08;100.00
69318;BME280;56457;52.190;4.440;2023-03-19T05:06:34;101272.91;;;9.10;100.00
69318;BME280;56457;52.190;4.440;2023-03-19T05:07:35;101275.53;;;9.08;100.00
69318;BME280;56457;52.190;4.440;2023-03-19T05:08:36;101279.03;;;9.07;100.00
69318;BME280;56457;52.190;4.440;2023-03-19T05:09:36;101282.53;;;9.14;100.00
69318;BME280;56457;52.190;4.440;2023-03-19T05:10:36;101282.50;;;9.11;100.00
69318;BME280;56457;52.190;4.440;2023-03-19T05:11:37;101286.91;;;9.15;100.00
69318;BME280;56457;52.190;4.440;2023-03-19T05:12:37;101288.66;;;9.14;100.00
69318;BME280;56457;52.190;4.440;2023-03-19T05:13:37;101285.16;;;9.14;100.00
69318;BME280;56457;52.190;4.440;2023-03-19T05:14:38;101285.13;;;9.09;100.00
69318;BME280;56457;52.190;4.440;2023-03-19T05:15:40;101287.75;;;9.11;100.00
69318;BME280;56457;52.190;4.440;2023-03-19T05:16:40;101289.50;;;9.07;100.00
69318;BME280;56457;52.190;4.440;2023-03-19T05:17:41;101299.00;;;8.99;100.00
69318;BME280;56457;52.190;4.440;2023-03-19T05:18:42;101297.25;;;8.95;100.00
69318;BME280;56457;52.190;4.440;2023-03-19T05:19:42;101292.88;;;8.94;100.00
69318;BME280;56457;52.190;4.440;2023-03-19T05:20:42;101296.31;;;8.87;100.00
69318;BME280;56457;52.190;4.440;2023-03-19T05:21:43;101299.81;;;8.86;100.00